sensor_id;sensor_type;location;lat;lon;timestamp;P1;durP1;ratioP1;P2;durP2;ratioP2
24435;SDS011;12616;52.470;13.436;2023-09-12T00:05:29;22.60;;;16.00;;
24435;SDS011;12616;52.470;13.436;2023-09-12T00:11:03;21.00;;;14.67;;
24435;SDS011;12616;52.470;13.436;2023-09-12T00:24:54;16.27;;;14.13;;
24435;SDS011;12616;52.470;13.436;2023-09-12T00:27:59;21.93;;;15.60;;
24435;SDS011;12616;52.470;13.436;2023-09-12T00:33:58;23.53;;;15.90;;
24435;SDS011;12616;52.470;13.436;2023-09-12T00:40:15;18.83;;;15.90;;
24435;SDS011;12616;52.470;13.436;2023-09-12T00:50:52;20.20;;;14.50;;
24435;SDS011;12616;52.470;13.436;2023-09-12T00:54:00;16.47;;;14.67;;
24435;SDS011;12616;52.470;13.436;2023-09-12T00:57:17;20.30;;;14.77;;
24435;SDS011;12616;52.470;13.436;2023-09-12T01:00:20;24.53;;;15.97;;
24435;SDS011;12616;52.470;13.436;2023-09-12T01:03:40;18.63;;;14.20;;
24435;SDS011;12616;52.470;13.436;2023-09-12T01:06:27;15.00;;;13.53;;
24435;SDS011;12616;52.470;13.436;2023-09-12T01:09:42;19.17;;;14.80;;
24435;SDS011;12616;52.470;13.436;2023-09-12T01:21:02;17.53;;;15.43;;
24435;SDS011;12616;52.470;13.436;2023-09-12T01:24:19;16.83;;;14.03;;
24435;SDS011;12616;52.470;13.436;2023-09-12T01:33:40;14.67;;;13.27;;
24435;SDS011;12616;52.470;13.436;2023-09-12T01:36:23;14.93;;;13.33;;
24435;SDS011;12616;52.470;13.436;2023-09-12T01:49:54;15.53;;;13.00;;
24435;SDS011;12616;52.470;13.436;2023-09-12T01:53:02;18.20;;;13.30;;
24435;SDS011;12616;52.470;13.436;2023-09-12T01:55:56;15.07;;;13.47;;
24435;SDS011;12616;52.470;13.436;2023-09-12T01:58:36;15.70;;;14.00;;
24435;SDS011;12616;52.470;13.436;2023-09-12T02:01:25;22.37;;;15.03;;
24435;SDS011;12616;52.470;13.436;2023-09-12T02:04:28;16.10;;;13.80;;
24435;SDS011;12616;52.470;13.436;2023-09-12T02:07:08;16.30;;;14.60;;
24435;SDS011;12616;52.470;13.436;2023-09-12T02:09:54;15.17;;;13.63;;
24435;SDS011;12616;52.470;13.436;2023-09-12T02:15:43;15.33;;;13.93;;
24435;SDS011;12616;52.470;13.436;2023-09-12T02:18:33;17.77;;;14.60;;
24435;SDS011;12616;52.470;13.436;2023-09-12T02:21:19;15.40;;;13.80;;
24435;SDS011;12616;52.470;13.436;2023-09-12T02:37:19;18.93;;;15.07;;
24435;SDS011;12616;52.470;13.436;2023-09-12T02:40:01;15.97;;;14.37;;
24435;SDS011;12616;52.470;13.436;2023-09-12T02:43:01;17.97;;;14.83;;
24435;SDS011;12616;52.470;13.436;2023-09-12T02:45:50;16.67;;;14.80;;
24435;SDS011;12616;52.470;13.436;2023-09-12T02:48:45;14.80;;;13.37;;
24435;SDS011;12616;52.470;13.436;2023-09-12T02:51:32;15.00;;;13.50;;
24435;SDS011;12616;52.470;13.436;2023-09-12T02:57:06;16.20;;;14.50;;
24435;SDS011;12616;52.470;13.436;2023-09-12T02:59:48;15.07;;;13.47;;
24435;SDS011;12616;52.470;13.436;2023-09-12T03:02:21;15.20;;;13.63;;
24435;SDS011;12616;52.470;13.436;2023-09-12T03:05:13;16.40;;;14.63;;
24435;SDS011;12616;52.470;13.436;2023-09-12T03:08:04;13.70;;;12.33;;
24435;SDS011;12616;52.470;13.436;2023-09-12T03:27:30;24.40;;;16.83;;
24435;SDS011;12616;52.470;13.436;2023-09-12T03:35:51;18.40;;;15.17;;
24435;SDS011;12616;52.470;13.436;2023-09-12T03:38:27;18.03;;;16.23;;
24435;SDS011;12616;52.470;13.436;2023-09-12T03:46:29;20.30;;;17.47;;
24435;SDS011;12616;52.470;13.436;2023-09-12T03:49:16;18.63;;;15.60;;
24435;SDS011;12616;52.470;13.436;2023-09-12T03:52:05;21.37;;;16.10;;
24435;SDS011;12616;52.470;13.436;2023-09-12T03:58:04;17.50;;;15.77;;
24435;SDS011;12616;52.470;13.436;2023-09-12T04:00:55;18.87;;;16.87;;
24435;SDS011;12616;52.470;13.436;2023-09-12T04:03:28;18.73;;;15.47;;
24435;SDS011;12616;52.470;13.436;2023-09-12T04:06:28;18.37;;;16.20;;
24435;SDS011;12616;52.470;13.436;2023-09-12T04:12:25;22.33;;;16.60;;
24435;SDS011;12616;52.470;13.436;2023-09-12T04:42:02;20.50;;;17.63;;
24435;SDS011;12616;52.470;13.436;2023-09-12T05:11:22;18.27;;;16.47;;
24435;SDS011;12616;52.470;13.436;2023-09-12T05:13:54;21.97;;;17.70;;
24435;SDS011;12616;52.470;13.436;2023-09-12T05:16:39;18.80;;;16.00;;
24435;SDS011;12616;52.470;13.436;2023-09-12T07:06:05;15.90;;;14.10;;
24435;SDS011;12616;52.470;13.436;2023-09-12T07:08:44;17.50;;;15.63;;
24435;SDS011;12616;52.470;13.436;2023-09-12T07:11:16;17.70;;;14.87;;
24435;SDS011;12616;52.470;13.436;2023-09-12T07:14:01;15.07;;;13.63;;
24435;SDS011;12616;52.470;13.436;2023-09-12T07:16:59;16.60;;;12.63;;
24435;SDS011;12616;52.470;13.436;2023-09-12T09:52:12;15.30;;;7.93;;
24435;SDS011;12616;52.470;13.436;2023-09-12T09:58:22;13.23;;;9.27;;
24435;SDS011;12616;52.470;13.436;2023-09-12T10:04:56;16.77;;;9.00;;
24435;SDS011;12616;52.470;13.436;2023-09-12T11:06:32;16.10;;;10.13;;
24435;SDS011;12616;52.470;13.436;2023-09-12T11:09:38;23.50;;;9.60;;
24435;SDS011;12616;52.470;13.436;2023-09-12T11:12:41;18.53;;;9.87;;
24435;SDS011;12616;52.470;13.436;2023-09-12T11:15:19;12.90;;;7.50;;
24435;SDS011;12616;52.470;13.436;2023-09-12T11:17:47;14.90;;;8.70;;
24435;SDS011;12616;52.470;13.436;2023-09-12T11:20:16;14.50;;;8.30;;
24435;SDS011;12616;52.470;13.436;2023-09-12T11:22:44;11.93;;;8.03;;
24435;SDS011;12616;52.470;13.436;2023-09-12T11:25:16;20.03;;;11.53;;
24435;SDS011;12616;52.470;13.436;2023-09-12T11:27:44;16.63;;;7.80;;
24435;SDS011;12616;52.470;13.436;2023-09-12T11:30:27;16.90;;;13.67;;
24435;SDS011;12616;52.470;13.436;2023-09-12T11:32:56;17.87;;;8.63;;
24435;SDS011;12616;52.470;13.436;2023-09-12T11:35:24;15.23;;;10.40;;
24435;SDS011;12616;52.470;13.436;2023-09-12T11:37:54;16.33;;;9.70;;
24435;SDS011;12616;52.470;13.436;2023-09-12T11:40:23;18.80;;;9.93;;
24435;SDS011;12616;52.470;13.436;2023-09-12T11:42:50;11.53;;;9.87;;
24435;SDS011;12616;52.470;13.436;2023-09-12T11:45:18;24.63;;;10.17;;
24435;SDS011;12616;52.470;13.436;2023-09-12T11:47:46;14.30;;;9.20;;
24435;SDS011;12616;52.470;13.436;2023-09-12T11:50:29;15.10;;;9.43;;
24435;SDS011;12616;52.470;13.436;2023-09-12T11:53:03;18.70;;;10.70;;
24435;SDS011;12616;52.470;13.436;2023-09-12T11:55:32;15.07;;;10.00;;
24435;SDS011;12616;52.470;13.436;2023-09-12T11:58:00;17.47;;;10.90;;
24435;SDS011;12616;52.470;13.436;2023-09-12T12:00:31;20.90;;;9.83;;
24435;SDS011;12616;52.470;13.436;2023-09-12T12:03:00;16.33;;;10.20;;
24435;SDS011;12616;52.470;13.436;2023-09-12T12:05:27;14.67;;;10.40;;
24435;SDS011;12616;52.470;13.436;2023-09-12T12:07:55;18.73;;;12.13;;
24435;SDS011;12616;52.470;13.436;2023-09-12T12:10:24;14.13;;;9.93;;
24435;SDS011;12616;52.470;13.436;2023-09-12T12:12:53;16.20;;;9.70;;
24435;SDS011;12616;52.470;13.436;2023-09-12T12:15:20;13.23;;;8.40;;
24435;SDS011;12616;52.470;13.436;2023-09-12T12:17:47;11.20;;;8.87;;
24435;SDS011;12616;52.470;13.436;2023-09-12T12:20:17;9.63;;;8.30;;
24435;SDS011;12616;52.470;13.436;2023-09-12T12:22:45;18.57;;;9.20;;
24435;SDS011;12616;52.470;13.436;2023-09-12T12:25:14;11.87;;;8.10;;
24435;SDS011;12616;52.470;13.436;2023-09-12T12:27:42;12.43;;;8.10;;
24435;SDS011;12616;52.470;13.436;2023-09-12T12:30:10;18.53;;;8.97;;
24435;SDS011;12616;52.470;13.436;2023-09-12T12:32:39;13.43;;;8.70;;
24435;SDS011;12616;52.470;13.436;2023-09-12T12:35:07;14.13;;;12.70;;
24435;SDS011;12616;52.470;13.436;2023-09-12T12:37:35;10.60;;;8.80;;
24435;SDS011;12616;52.470;13.436;2023-09-12T12:40:03;12.40;;;7.90;;
24435;SDS011;12616;52.470;13.436;2023-09-12T12:42:34;12.90;;;7.40;;
24435;SDS011;12616;52.470;13.436;2023-09-12T12:45:14;10.47;;;9.30;;
24435;SDS011;12616;52.470;13.436;2023-09-12T12:47:50;14.13;;;9.90;;
24435;SDS011;12616;52.470;13.436;2023-09-12T12:50:23;13.13;;;8.67;;
24435;SDS011;12616;52.470;13.436;2023-09-12T12:52:51;16.37;;;8.50;;
24435;SDS011;12616;52.470;13.436;2023-09-12T12:55:19;10.40;;;8.70;;
24435;SDS011;12616;52.470;13.436;2023-09-12T12:57:48;9.60;;;8.03;;
24435;SDS011;12616;52.470;13.436;2023-09-12T13:00:17;11.67;;;8.30;;
24435;SDS011;12616;52.470;13.436;2023-09-12T13:02:44;11.57;;;8.27;;
24435;SDS011;12616;52.470;13.436;2023-09-12T13:05:25;11.63;;;8.40;;
24435;SDS011;12616;52.470;13.436;2023-09-12T13:07:54;11.30;;;8.30;;
24435;SDS011;12616;52.470;13.436;2023-09-12T13:10:22;9.60;;;7.73;;
24435;SDS011;12616;52.470;13.436;2023-09-12T13:12:50;15.10;;;10.10;;
24435;SDS011;12616;52.470;13.436;2023-09-12T13:15:18;8.40;;;7.50;;
24435;SDS011;12616;52.470;13.436;2023-09-12T13:17:45;13.43;;;8.33;;
24435;SDS011;12616;52.470;13.436;2023-09-12T13:20:12;14.70;;;8.60;;
24435;SDS011;12616;52.470;13.436;2023-09-12T13:22:39;11.20;;;8.20;;
24435;SDS011;12616;52.470;13.436;2023-09-12T13:25:16;11.37;;;9.00;;
24435;SDS011;12616;52.470;13.436;2023-09-12T13:28:06;12.70;;;8.50;;
24435;SDS011;12616;52.470;13.436;2023-09-12T13:30:43;12.30;;;8.40;;
24435;SDS011;12616;52.470;13.436;2023-09-12T13:39:02;10.23;;;8.47;;
24435;SDS011;12616;52.470;13.436;2023-09-12T13:41:34;9.63;;;8.67;;
24435;SDS011;12616;52.470;13.436;2023-09-12T13:44:11;12.80;;;8.83;;
24435;SDS011;12616;52.470;13.436;2023-09-12T13:49:53;10.37;;;7.57;;
24435;SDS011;12616;52.470;13.436;2023-09-12T13:52:31;13.50;;;7.80;;
24435;SDS011;12616;52.470;13.436;2023-09-12T13:55:11;8.70;;;7.50;;
24435;SDS011;12616;52.470;13.436;2023-09-12T13:57:43;9.83;;;8.90;;
24435;SDS011;12616;52.470;13.436;2023-09-12T14:00:25;8.63;;;7.80;;
24435;SDS011;12616;52.470;13.436;2023-09-12T14:03:17;10.57;;;7.97;;
24435;SDS011;12616;52.470;13.436;2023-09-12T14:05:49;12.27;;;7.43;;
24435;SDS011;12616;52.470;13.436;2023-09-12T14:11:20;12.10;;;8.73;;
24435;SDS011;12616;52.470;13.436;2023-09-12T14:14:09;10.73;;;8.13;;
24435;SDS011;12616;52.470;13.436;2023-09-12T14:20:33;21.80;;;9.53;;
24435;SDS011;12616;52.470;13.436;2023-09-12T14:24:05;10.80;;;8.20;;
24435;SDS011;12616;52.470;13.436;2023-09-12T14:27:13;11.43;;;8.90;;
24435;SDS011;12616;52.470;13.436;2023-09-12T14:30:26;15.27;;;9.90;;
24435;SDS011;12616;52.470;13.436;2023-09-12T14:33:30;12.33;;;8.03;;
24435;SDS011;12616;52.470;13.436;2023-09-12T14:36:21;20.83;;;7.80;;
24435;SDS011;12616;52.470;13.436;2023-09-12T14:42:44;8.60;;;7.37;;
24435;SDS011;12616;52.470;13.436;2023-09-12T14:45:31;11.10;;;7.70;;
24435;SDS011;12616;52.470;13.436;2023-09-12T14:48:07;12.20;;;8.00;;
24435;SDS011;12616;52.470;13.436;2023-09-12T14:50:42;9.10;;;7.37;;
24435;SDS011;12616;52.470;13.436;2023-09-12T14:53:26;13.47;;;8.13;;
24435;SDS011;12616;52.470;13.436;2023-09-12T14:56:51;9.77;;;8.30;;
24435;SDS011;12616;52.470;13.436;2023-09-12T14:59:47;11.90;;;6.70;;
24435;SDS011;12616;52.470;13.436;2023-09-12T15:05:38;5.20;;;4.23;;
24435;SDS011;12616;52.470;13.436;2023-09-12T15:08:05;12.40;;;3.87;;
24435;SDS011;12616;52.470;13.436;2023-09-12T15:10:34;4.90;;;4.10;;
24435;SDS011;12616;52.470;13.436;2023-09-12T15:13:01;4.30;;;3.40;;
24435;SDS011;12616;52.470;13.436;2023-09-12T15:15:28;9.60;;;3.37;;
24435;SDS011;12616;52.470;13.436;2023-09-12T15:17:55;6.30;;;3.50;;
24435;SDS011;12616;52.470;13.436;2023-09-12T15:20:22;5.83;;;3.30;;
24435;SDS011;12616;52.470;13.436;2023-09-12T15:22:51;5.13;;;3.70;;
24435;SDS011;12616;52.470;13.436;2023-09-12T15:25:18;4.67;;;3.73;;
24435;SDS011;12616;52.470;13.436;2023-09-12T15:27:47;3.93;;;3.30;;
24435;SDS011;12616;52.470;13.436;2023-09-12T15:30:16;5.90;;;3.47;;
24435;SDS011;12616;52.470;13.436;2023-09-12T15:32:51;4.13;;;3.73;;
24435;SDS011;12616;52.470;13.436;2023-09-12T15:35:36;3.80;;;3.50;;
24435;SDS011;12616;52.470;13.436;2023-09-12T15:38:09;7.40;;;3.50;;
24435;SDS011;12616;52.470;13.436;2023-09-12T15:40:42;4.50;;;3.30;;
24435;SDS011;12616;52.470;13.436;2023-09-12T15:43:12;4.57;;;4.17;;
24435;SDS011;12616;52.470;13.436;2023-09-12T15:45:56;5.40;;;4.73;;
24435;SDS011;12616;52.470;13.436;2023-09-12T15:48:37;8.20;;;5.30;;
24435;SDS011;12616;52.470;13.436;2023-09-12T15:51:13;4.93;;;3.37;;
24435;SDS011;12616;52.470;13.436;2023-09-12T15:53:42;3.47;;;3.17;;
24435;SDS011;12616;52.470;13.436;2023-09-12T15:56:14;5.23;;;3.80;;
24435;SDS011;12616;52.470;13.436;2023-09-12T15:58:45;4.57;;;3.50;;
24435;SDS011;12616;52.470;13.436;2023-09-12T16:01:13;5.30;;;3.50;;
24435;SDS011;12616;52.470;13.436;2023-09-12T16:03:40;10.90;;;4.23;;
24435;SDS011;12616;52.470;13.436;2023-09-12T16:06:08;5.77;;;4.03;;
24435;SDS011;12616;52.470;13.436;2023-09-12T16:08:35;4.57;;;3.63;;
24435;SDS011;12616;52.470;13.436;2023-09-12T16:11:02;3.53;;;3.23;;
24435;SDS011;12616;52.470;13.436;2023-09-12T16:13:29;5.60;;;3.20;;
24435;SDS011;12616;52.470;13.436;2023-09-12T16:16:03;3.23;;;2.93;;
24435;SDS011;12616;52.470;13.436;2023-09-12T16:18:31;3.03;;;2.83;;
24435;SDS011;12616;52.470;13.436;2023-09-12T16:20:59;3.10;;;2.57;;
24435;SDS011;12616;52.470;13.436;2023-09-12T16:23:31;3.20;;;2.33;;
24435;SDS011;12616;52.470;13.436;2023-09-12T16:26:03;2.93;;;2.70;;
24435;SDS011;12616;52.470;13.436;2023-09-12T16:28:38;7.40;;;2.67;;
24435;SDS011;12616;52.470;13.436;2023-09-12T16:31:14;4.40;;;3.13;;
24435;SDS011;12616;52.470;13.436;2023-09-12T16:33:41;3.90;;;2.50;;
24435;SDS011;12616;52.470;13.436;2023-09-12T16:36:19;7.83;;;4.80;;
24435;SDS011;12616;52.470;13.436;2023-09-12T16:38:47;4.13;;;3.00;;
24435;SDS011;12616;52.470;13.436;2023-09-12T16:41:25;4.20;;;2.87;;
24435;SDS011;12616;52.470;13.436;2023-09-12T16:50:49;3.93;;;2.60;;
24435;SDS011;12616;52.470;13.436;2023-09-12T16:53:40;3.87;;;3.40;;
24435;SDS011;12616;52.470;13.436;2023-09-12T16:56:58;3.20;;;2.90;;
24435;SDS011;12616;52.470;13.436;2023-09-12T16:59:57;3.77;;;2.93;;
24435;SDS011;12616;52.470;13.436;2023-09-12T17:02:42;4.07;;;2.63;;
24435;SDS011;12616;52.470;13.436;2023-09-12T17:09:12;3.73;;;3.50;;
24435;SDS011;12616;52.470;13.436;2023-09-12T17:11:40;2.70;;;2.50;;
24435;SDS011;12616;52.470;13.436;2023-09-12T17:21:15;3.23;;;2.40;;
24435;SDS011;12616;52.470;13.436;2023-09-12T17:30:48;4.90;;;3.17;;
24435;SDS011;12616;52.470;13.436;2023-09-12T17:36:43;3.50;;;2.83;;
24435;SDS011;12616;52.470;13.436;2023-09-12T17:39:13;3.07;;;2.87;;
24435;SDS011;12616;52.470;13.436;2023-09-12T17:42:03;6.53;;;3.20;;
24435;SDS011;12616;52.470;13.436;2023-09-12T17:53:58;10.77;;;5.17;;
24435;SDS011;12616;52.470;13.436;2023-09-12T17:56:32;6.77;;;4.63;;
24435;SDS011;12616;52.470;13.436;2023-09-12T17:59:18;3.90;;;3.60;;
24435;SDS011;12616;52.470;13.436;2023-09-12T18:02:02;8.53;;;5.90;;
24435;SDS011;12616;52.470;13.436;2023-09-12T18:04:39;9.03;;;7.33;;
24435;SDS011;12616;52.470;13.436;2023-09-12T18:07:09;5.57;;;4.27;;
24435;SDS011;12616;52.470;13.436;2023-09-12T18:09:36;6.40;;;5.80;;
24435;SDS011;12616;52.470;13.436;2023-09-12T18:12:06;11.93;;;9.70;;
24435;SDS011;12616;52.470;13.436;2023-09-12T18:14:43;9.77;;;7.20;;
24435;SDS011;12616;52.470;13.436;2023-09-12T18:17:15;8.77;;;7.90;;
24435;SDS011;12616;52.470;13.436;2023-09-12T18:19:56;14.37;;;11.47;;
24435;SDS011;12616;52.470;13.436;2023-09-12T18:22:57;10.90;;;8.17;;
24435;SDS011;12616;52.470;13.436;2023-09-12T18:25:38;6.27;;;4.10;;
24435;SDS011;12616;52.470;13.436;2023-09-12T18:28:05;5.70;;;5.20;;
24435;SDS011;12616;52.470;13.436;2023-09-12T18:30:33;7.33;;;6.00;;
24435;SDS011;12616;52.470;13.436;2023-09-12T18:33:06;18.13;;;14.13;;
24435;SDS011;12616;52.470;13.436;2023-09-12T18:35:45;3.10;;;2.90;;
